Fecha, hora, temperatura, viento dirección y velocidad, humedad y presión.

  • 16-01-2019 16:00:00 | 16.20°C | Norte |5.00 km/h | 56.00% | 1014.70 hPa
  • 16-01-2019 15:00:00 | 16.70°C | Oeste |5.00 km/h | 55.00% | 1015.30 hPa
  • 16-01-2019 14:00:00 | 15.40°C | Noroeste |5.00 km/h | 63.00% | 1016.00 hPa
  • 16-01-2019 13:00:00 | 13.70°C | Norte |4.00 km/h | 70.00% | 1017.00 hPa
  • 16-01-2019 12:00:00 | 11.80°C | Norte |4.00 km/h | 75.00% | 1017.90 hPa
  • 16-01-2019 11:00:00 | 8.90°C | Nordeste |9.00 km/h | 85.00% | 1017.80 hPa
  • 16-01-2019 10:00:00 | 6.10°C | Nordeste |6.00 km/h | 93.00% | 1017.60 hPa
  • 16-01-2019 09:00:00 | 5.00°C | Nordeste |9.00 km/h | 95.00% | 1017.10 hPa
  • 16-01-2019 08:00:00 | 4.70°C | Noroeste |9.00 km/h | 95.00% | 1017.10 hPa
  • 16-01-2019 07:00:00 | 3.50°C | Nordeste |4.00 km/h | 95.00% | 1016.80 hPa
  • 16-01-2019 06:00:00 | 3.60°C | Nordeste |2.00 km/h | 95.00% | 1017.00 hPa
  • 16-01-2019 05:00:00 | 3.20°C | Norte |6.00 km/h | 94.00% | 1017.20 hPa
  • 16-01-2019 04:00:00 | 4.30°C | Norte |4.00 km/h | 95.00% | 1017.70 hPa
  • 16-01-2019 03:00:00 | 4.00°C | Nordeste |6.00 km/h | 93.00% | 1017.80 hPa
  • 16-01-2019 02:00:00 | 4.70°C | Norte |4.00 km/h | 94.00% | 1017.90 hPa
  • 16-01-2019 01:00:00 | 5.00°C | Norte |3.00 km/h | 92.00% | 1018.20 hPa
  • 16-01-2019 00:00:00 | 5.50°C | Norte |2.00 km/h | 92.00% | 1018.40 hPa
  • 15-01-2019 23:00:00 | 6.10°C | Calma |0.00 km/h | 91.00% | 1018.20 hPa
  • 15-01-2019 22:00:00 | 6.70°C | Sudeste |5.00 km/h | 90.00% | 1017.90 hPa
  • 15-01-2019 20:00:00 | 8.40°C | Sudeste |6.00 km/h | 85.00% | 1017.30 hPa
  • 15-01-2019 20:00:00 | 8.40°C | Sudeste |6.00 km/h | 85.00% | 1017.30 hPa
  • 15-01-2019 19:00:00 | 9.90°C | Este |5.00 km/h | 79.00% | 1017.10 hPa
  • 15-01-2019 18:00:00 | 11.10°C | Nordeste |7.00 km/h | 76.00% | 1016.60 hPa
  • 15-01-2019 17:00:00 | 12.30°C | Nordeste |9.00 km/h | 70.00% | 1016.70 hPa
    • diseño web asturias Información sobre el estado de las mareas, altura de la marejada, temperatura del agua y otros datos de Gijón en Asturias.

      Surf Gijón